Time;durP1;ratioP1;P1;durP2;ratioP2;P2;SDS_P1;SDS_P2;PMS_P1;PMS_P2;Temp;Humidity;BMP_temperature;BMP_pressure;BME280_temperature;BME280_humidity;BME280_pressure;Samples;Min_cycle;Max_cycle;Signal;HPM_P1;HPM_P2
2022/05/14 09:57:57;;;;;;;3.10;2.50;;;;;;;26.67;44.18;101214.31;1704404;84;22533;-49
2022/05/14 10:00:36;;;;;;;5.28;2.72;;;;;;;26.57;44.51;101214.70;1681348;84;21602;-48
2022/05/14 10:03:42;;;;;;;3.92;3.35;;;;;;;26.46;44.75;101213.41;1680716;84;21037;-48
2022/05/14 10:06:36;;;;;;;4.45;2.75;;;;;;;26.40;45.03;101212.53;1692822;83;21013;-48
2022/05/14 10:09:39;;;;;;;4.53;2.65;;;;;;;26.33;45.20;101207.34;1681257;84;21057;-49
2022/05/14 10:12:30;;;;;;;6.20;3.47;;;;;;;26.33;45.19;101208.67;1667638;84;21096;-49
2022/05/14 10:15:23;;;;;;;5.75;4.10;;;;;;;26.35;45.28;101209.40;1663705;85;21043;-49
2022/05/14 10:18:30;;;;;;;9.15;6.42;;;;;;;26.45;45.57;101211.69;1670360;84;21556;-48
2022/05/14 10:21:29;;;;;;;3.55;2.90;;;;;;;26.45;45.57;101211.69;1674059;85;21061;-49
2022/05/14 10:27:25;;;;;;;8.43;2.90;;;;;;;26.53;45.59;101217.25;1668232;83;21062;-48
2022/05/14 10:30:17;;;;;;;7.30;2.87;;;;;;;26.53;45.39;101215.92;1673719;84;21046;-48
2022/05/14 10:32:45;;;;;;;;;;;;;;;26.53;45.38;101207.91;1691326;84;21013;-49
2022/05/14 10:35:21;;;;;;;4.17;2.60;;;;;;;26.51;45.27;101218.72;1673919;84;20139;-49
2022/05/14 10:38:14;;;;;;;3.75;2.77;;;;;;;26.46;45.43;101212.06;1660961;85;21749;-49
2022/05/14 10:40:55;;;;;;;2.42;2.20;;;;;;;26.41;45.84;101206.23;1654433;85;21072;-48
2022/05/14 10:43:52;;;;;;;3.20;2.08;;;;;;;26.39;45.97;101206.37;1636914;83;21734;-49
2022/05/14 10:46:22;;;;;;;3.00;2.00;;;;;;;26.42;46.01;101201.28;1568088;90;21082;-48
2022/05/14 10:48:58;;;;;;;2.70;2.08;;;;;;;26.47;45.43;101192.40;1593865;88;21089;-48
2022/05/14 10:51:29;;;;;;;3.58;2.27;;;;;;;26.53;45.22;101193.23;1597396;88;21081;-49
2022/05/14 10:54:00;;;;;;;3.83;2.00;;;;;;;26.60;44.99;101195.78;1592743;88;21669;-49
2022/05/14 10:56:34;;;;;;;1.95;1.85;;;;;;;26.68;44.73;101193.33;1588233;88;21073;-49
2022/05/14 10:59:11;;;;;;;3.22;1.90;;;;;;;26.76;44.48;101201.59;1591401;88;21092;-49
2022/05/14 11:01:56;;;;;;;3.20;1.90;;;;;;;26.76;44.24;101208.27;1552700;90;21164;-49
2022/05/14 11:04:28;;;;;;;;;;;;;;;26.77;44.60;101200.59;1533799;92;21119;-48
2022/05/14 11:07:01;;;;;;;3.22;1.80;;;;;;;26.93;43.01;101201.06;1524714;92;20131;-48
2022/05/14 11:09:42;;;;;;;3.08;1.62;;;;;;;26.93;43.01;101201.06;1525837;92;21621;-48
2022/05/14 11:12:24;;;;;;;2.47;1.80;;;;;;;27.08;42.88;101206.95;1537016;92;21071;-49
2022/05/14 11:14:55;;;;;;;1.77;1.67;;;;;;;27.21;42.52;101199.11;1528592;92;21047;-48
2022/05/14 11:17:36;;;;;;;3.85;1.90;;;;;;;27.31;42.58;101202.70;1546648;92;21608;-49
2022/05/14 11:20:08;;;;;;;8.03;3.62;;;;;;;27.38;43.06;101204.40;1539655;91;21107;-49
2022/05/14 11:22:46;;;;;;;2.35;2.08;;;;;;;27.47;43.71;101198.77;1531670;92;21130;-48
2022/05/14 11:25:24;;;;;;;4.12;2.30;;;;;;;27.52;41.84;101205.89;1499227;93;21359;-49
2022/05/14 11:28:21;;;;;;;2.70;2.15;;;;;;;27.57;41.15;101207.70;1508507;94;21646;-49
2022/05/14 11:30:51;;;;;;;3.47;2.15;;;;;;;27.60;40.67;101214.95;1499093;94;21111;-48
2022/05/14 11:33:29;;;;;;;2.20;2.00;;;;;;;27.64;40.77;101210.18;1503254;94;21066;-49
2022/05/14 11:35:59;;;;;;;2.52;2.08;;;;;;;27.67;40.41;101212.13;1487949;94;21153;-49
2022/05/14 11:38:33;;;;;;;4.30;2.27;;;;;;;27.72;40.29;101213.90;1486821;94;21099;-48
2022/05/14 11:41:09;;;;;;;3.12;1.60;;;;;;;27.76;40.50;101202.47;1520106;90;21444;-49
2022/05/14 11:43:44;;;;;;;5.00;2.30;;;;;;;27.81;40.60;101214.94;1552565;91;21071;-48
2022/05/14 11:46:42;;;;;;;4.70;2.20;;;;;;;27.85;40.62;101212.36;1519709;92;21164;-49
2022/05/14 11:49:21;;;;;;;4.80;2.50;;;;;;;27.88;40.05;101208.09;1522498;92;21133;-48
2022/05/14 11:52:13;;;;;;;3.77;2.17;;;;;;;27.82;40.17;101212.64;1529380;91;21126;-48
2022/05/14 11:54:58;;;;;;;3.72;2.15;;;;;;;27.77;39.92;101208.16;1528384;92;21113;-48
2022/05/14 11:57:31;;;;;;;4.85;2.22;;;;;;;27.72;40.79;101213.08;1539543;91;21079;-49
2022/05/14 12:00:12;;;;;;;9.93;2.83;;;;;;;27.69;40.84;101211.50;1536276;92;21093;-48
2022/05/14 12:03:11;;;;;;;5.65;2.02;;;;;;;27.74;40.05;101208.44;1506693;93;21130;-49
2022/05/14 12:05:55;;;;;;;3.27;2.58;;;;;;;27.75;40.33;101206.11;1496516;93;21122;-48
2022/05/14 12:09:05;;;;;;;2.65;2.22;;;;;;;27.77;40.68;101214.84;1524348;93;21448;-49
2022/05/14 12:11:45;;;;;;;2.25;2.05;;;;;;;27.78;40.82;101213.88;1517396;93;21069;-48
2022/05/14 12:14:18;;;;;;;6.55;1.90;;;;;;;27.79;39.49;101208.88;1484437;94;21062;-49
2022/05/14 12:16:51;;;;;;;3.77;2.10;;;;;;;27.76;39.25;101217.17;1512037;92;21486;-48
2022/05/14 12:19:39;;;;;;;2.37;1.90;;;;;;;27.71;39.43;101207.35;1508657;94;21636;-49
2022/05/14 12:22:18;;;;;;;2.00;1.80;;;;;;;27.71;39.04;101211.36;1486850;95;21158;-49
2022/05/14 12:25:00;;;;;;;4.50;2.22;;;;;;;27.74;39.63;101213.79;1480415;95;21600;-48
2022/05/14 12:27:30;;;;;;;2.40;2.20;;;;;;;27.77;39.76;101220.19;1475866;96;21129;-48
2022/05/14 12:30:01;;;;;;;3.60;2.10;;;;;;;27.77;39.75;101212.17;1477491;96;21081;-49
2022/05/14 12:35:22;;;;;;;2.50;2.30;;;;;;;27.73;38.97;101206.25;1459502;96;21213;-49
2022/05/14 12:37:55;;;;;;;2.70;2.05;;;;;;;27.73;38.79;101211.59;1455762;96;21213;-49
2022/05/14 12:40:35;;;;;;;2.08;1.72;;;;;;;27.79;39.42;101206.20;1486886;93;21149;-49
2022/05/14 12:43:04;;;;;;;6.33;2.33;;;;;;;27.86;39.01;101210.88;1524834;93;21088;-49
2022/05/14 12:45:43;;;;;;;3.15;1.70;;;;;;;27.87;38.34;101209.05;1532312;92;21183;-49
2022/05/14 12:48:12;;;;;;;3.52;2.42;;;;;;;27.89;37.93;101209.77;1487530;95;21065;-50
2022/05/14 12:50:41;;;;;;;4.45;2.15;;;;;;;27.91;38.55;101210.00;1488645;93;21120;-49
2022/05/14 12:53:13;;;;;;;5.12;1.80;;;;;;;27.91;38.53;101203.80;1520842;93;21140;-49
2022/05/14 12:55:49;;;;;;;3.30;1.75;;;;;;;27.95;37.37;101206.55;1522130;93;21427;-49
2022/05/14 12:58:17;;;;;;;2.17;1.80;;;;;;;28.00;37.21;101211.06;1523948;92;21537;-49
2022/05/14 13:00:47;;;;;;;4.53;2.40;;;;;;;28.07;36.68;101210.38;1532499;91;21169;-49
2022/05/14 13:03:39;;;;;;;3.22;1.67;;;;;;;28.08;37.66;101210.76;1539928;91;21097;-49
2022/05/14 13:06:19;;;;;;;4.25;2.00;;;;;;;28.08;37.30;101217.93;1540390;91;21203;-49
2022/05/14 13:08:49;;;;;;;4.25;2.02;;;;;;;28.09;38.00;101216.93;1528908;92;21085;-49
2022/05/14 13:11:23;;;;;;;10.30;6.10;;;;;;;28.11;37.96;101214.97;1500972;93;21172;-49
2022/05/14 13:13:54;;;;;;;11.15;5.12;;;;;;;28.11;37.21;101217.64;1496657;94;21134;-49
2022/05/14 13:16:23;;;;;;;6.30;4.03;;;;;;;28.11;37.24;101217.64;1532777;92;21088;-49
2022/05/14 13:18:57;;;;;;;3.92;2.60;;;;;;;28.15;37.10;101209.73;1539516;90;21192;-49
2022/05/14 13:21:28;;;;;;;3.95;2.00;;;;;;;28.18;36.81;101214.31;1536712;91;21138;-49
2022/05/14 13:24:05;;;;;;;4.00;1.87;;;;;;;28.20;36.60;101206.14;1526355;91;21160;-49
2022/05/14 13:26:44;;;;;;;4.20;2.02;;;;;;;28.20;36.74;101203.47;1534665;93;21616;-49
2022/05/14 13:29:30;;;;;;;3.30;2.70;;;;;;;28.20;36.69;101202.13;1525675;92;21901;-49
2022/05/14 13:32:23;;;;;;;2.75;1.85;;;;;;;28.20;36.62;101202.13;1510870;92;21126;-49
2022/05/14 13:37:52;;;;;;;2.65;1.72;;;;;;;28.25;37.41;101195.89;1610585;88;21137;-47
2022/05/14 13:40:34;;;;;;;3.10;1.50;;;;;;;28.28;36.81;101186.72;1620537;87;21086;-48
2022/05/14 13:43:15;;;;;;;4.92;1.70;;;;;;;28.30;36.80;101189.63;1548645;92;21188;-48
2022/05/14 13:45:56;;;;;;;1.45;1.30;;;;;;;28.25;35.75;101198.57;1557170;90;21582;-49
2022/05/14 13:48:40;;;;;;;2.58;1.62;;;;;;;28.18;36.17;101200.08;1584713;89;21156;-47
2022/05/14 13:51:25;;;;;;;2.33;1.15;;;;;;;28.18;36.17;101200.08;1598535;89;21626;-49
2022/05/14 13:53:57;;;;;;;3.95;1.37;;;;;;;28.17;36.70;101201.08;1590277;88;21133;-49
2022/05/14 13:56:30;;;;;;;2.35;1.42;;;;;;;28.18;35.51;101208.11;1542690;90;21201;-48
2022/05/14 13:59:10;;;;;;;5.70;2.12;;;;;;;28.23;36.15;101213.06;1568383;91;21159;-48
2022/05/14 14:01:46;;;;;;;3.52;1.20;;;;;;;28.26;36.79;101217.64;1548744;90;21203;-49
2022/05/14 14:04:26;;;;;;;2.70;1.47;;;;;;;28.31;35.33;101208.73;1564287;91;21109;-49
2022/05/14 14:07:04;;;;;;;3.47;1.62;;;;;;;28.32;34.11;101214.91;1522758;91;21133;-48
2022/05/14 14:09:31;;;;;;;3.65;1.30;;;;;;;28.33;33.64;101210.78;1515815;92;21083;-48
2022/05/14 14:11:58;;;;;;;5.47;1.67;;;;;;;28.34;32.54;101216.98;1522393;93;21093;-48
2022/05/14 14:14:26;;;;;;;2.22;1.30;;;;;;;28.31;32.61;101220.78;1518115;92;21165;-49
2022/05/14 14:16:52;;;;;;;2.05;1.35;;;;;;;28.30;33.44;101217.73;1562184;91;21082;-48
2022/05/14 14:19:20;;;;;;;1.55;1.40;;;;;;;28.30;34.27;101210.18;1553538;91;21551;-48
2022/05/14 14:21:46;;;;;;;1.87;1.20;;;;;;;28.28;34.29;101221.52;1562311;90;21554;-48
2022/05/14 14:24:16;;;;;;;2.60;1.30;;;;;;;28.25;32.72;101217.30;1543648;92;21616;-48
2022/05/14 14:26:47;;;;;;;2.12;1.30;;;;;;;28.23;31.93;101216.59;1535636;92;21112;-48
2022/05/14 14:29:14;;;;;;;4.03;1.35;;;;;;;28.24;32.59;101219.61;1547126;92;21053;-48
2022/05/14 14:31:42;;;;;;;2.30;1.10;;;;;;;28.25;31.33;101226.67;1553041;91;21119;-48
2022/05/14 14:34:09;;;;;;;1.20;1.10;;;;;;;28.27;29.78;101217.16;1562813;89;21568;-48
2022/05/14 14:36:36;;;;;;;3.20;1.22;;;;;;;28.27;30.62;101216.67;1583963;89;21175;-48
2022/05/14 14:39:06;;;;;;;1.75;1.20;;;;;;;28.23;30.39;101217.93;1586139;90;21110;-48
2022/05/14 14:41:35;;;;;;;1.00;0.90;;;;;;;28.21;29.84;101220.37;1583650;88;21055;-49
2022/05/14 14:44:03;;;;;;;1.75;1.10;;;;;;;28.19;29.31;101224.53;1626134;83;21061;-48
2022/05/14 14:46:31;;;;;;;2.85;1.20;;;;;;;28.19;28.65;101220.52;1675891;83;21125;-48
2022/05/14 14:49:02;;;;;;;2.60;1.55;;;;;;;28.22;29.13;101222.06;1689288;82;21018;-48
2022/05/14 14:51:26;;;;;;;3.67;1.10;;;;;;;28.21;30.14;101222.58;1682902;84;21090;-48
2022/05/14 14:53:54;;;;;;;1.45;1.32;;;;;;;28.21;29.16;101226.59;1695566;83;21037;-48
2022/05/14 14:56:21;;;;;;;1.52;1.17;;;;;;;28.19;29.50;101220.52;1674342;84;21525;-48
2022/05/14 14:58:48;;;;;;;2.27;1.12;;;;;;;28.17;29.61;101223.31;1675647;84;21053;-48
2022/05/14 15:01:35;;;;;;;3.27;1.22;;;;;;;28.16;30.36;101218.95;1679558;84;21045;-48
2022/05/14 15:04:11;;;;;;;2.20;1.00;;;;;;;28.13;29.28;101218.39;1642569;86;21117;-48
2022/05/14 15:06:38;;;;;;;3.10;1.05;;;;;;;28.11;28.56;101222.99;1577365;90;21087;-49
2022/05/14 15:09:05;;;;;;;1.60;1.20;;;;;;;28.10;28.50;101213.29;1569031;89;21135;-48
2022/05/14 15:11:33;;;;;;;2.75;1.22;;;;;;;28.09;28.30;101220.94;1550749;91;21037;-48
2022/05/14 15:14:06;;;;;;;1.85;1.67;;;;;;;28.07;28.93;101216.22;1512878;91;21132;-49
2022/05/14 15:16:33;;;;;;;1.50;1.40;;;;;;;28.03;28.52;101217.47;1591400;89;21108;-48
2022/05/14 15:19:00;;;;;;;1.65;1.30;;;;;;;28.01;28.26;101215.42;1575095;90;21109;-48
2022/05/14 15:21:26;;;;;;;2.55;1.25;;;;;;;27.99;29.59;101213.37;1557934;90;21084;-48
2022/05/14 15:23:53;;;;;;;1.10;1.00;;;;;;;27.98;29.96;101217.04;1563959;90;21186;-49
2022/05/14 15:26:22;;;;;;;2.00;1.30;;;;;;;27.97;29.62;101216.67;1576134;90;21136;-47
2022/05/14 15:28:50;;;;;;;1.82;1.10;;;;;;;27.93;28.75;101221.89;1560233;90;21205;-48
2022/05/14 15:31:27;;;;;;;1.25;1.07;;;;;;;27.93;29.29;101224.57;1582639;90;21078;-48
2022/05/14 15:33:54;;;;;;;3.25;1.30;;;;;;;27.93;29.57;101221.89;1554097;91;21101;-48
2022/05/14 15:36:21;;;;;;;1.85;1.17;;;;;;;27.92;30.34;101225.56;1579864;91;21070;-48
2022/05/14 15:38:48;;;;;;;1.98;1.02;;;;;;;27.90;30.37;101224.85;1582014;91;21035;-48
2022/05/14 15:41:15;;;;;;;1.15;1.05;;;;;;;27.89;30.18;101231.16;1581796;91;21586;-48
2022/05/14 15:43:43;;;;;;;2.20;1.40;;;;;;;27.88;30.18;101234.32;1601118;88;21601;-48
2022/05/14 15:46:12;;;;;;;3.77;1.20;;;;;;;27.85;30.18;101233.75;1656391;86;21078;-48
2022/05/14 15:48:45;;;;;;;2.37;1.25;;;;;;;27.82;29.86;101235.37;1637836;86;21031;-48
2022/05/14 15:51:16;;;;;;;1.50;1.10;;;;;;;27.79;30.53;101232.94;1627224;86;21118;-48
2022/05/14 15:53:45;;;;;;;1.25;1.07;;;;;;;27.75;29.08;101235.52;1606680;88;21098;-48
2022/05/14 15:56:27;;;;;;;1.17;1.00;;;;;;;27.71;28.92;101236.28;1616425;87;21031;-47
2022/05/14 15:58:54;;;;;;;1.40;0.93;;;;;;;27.69;29.01;101238.72;1605478;87;21098;-48
2022/05/14 16:01:21;;;;;;;1.50;1.10;;;;;;;27.66;28.92;101245.66;1633843;86;21275;-48
2022/05/14 16:03:49;;;;;;;1.62;1.02;;;;;;;27.61;29.51;101245.22;1626762;86;21124;-48
2022/05/14 16:06:16;;;;;;;3.33;1.10;;;;;;;27.60;30.09;101251.52;1661506;85;21537;-48
2022/05/14 16:08:45;;;;;;;1.42;1.20;;;;;;;27.58;30.54;101256.16;1627490;86;21569;-48
2022/05/14 16:16:43;;;;;;;1.37;1.10;;;;;;;27.47;31.58;101256.23;1655200;86;21091;-48
2022/05/14 16:19:10;;;;;;;1.37;1.15;;;;;;;27.42;31.34;101259.28;1660127;85;21103;-48
2022/05/14 16:21:37;;;;;;;1.42;1.10;;;;;;;27.38;31.17;101257.84;1660324;85;21062;-48
2022/05/14 16:24:05;;;;;;;1.65;1.00;;;;;;;27.35;31.27;101258.95;1655844;86;21113;-49
2022/05/14 16:26:34;;;;;;;0.70;0.70;;;;;;;27.32;31.60;101268.55;1658917;85;21585;-48
2022/05/14 16:29:06;;;;;;;2.27;1.00;;;;;;;27.29;32.57;101271.45;1664379;85;21176;-47
2022/05/14 16:31:33;;;;;;;1.47;1.07;;;;;;;27.26;32.18;101269.05;1658349;85;21043;-47
2022/05/14 16:34:01;;;;;;;2.05;1.22;;;;;;;27.22;31.26;101272.92;1619174;87;21037;-47
2022/05/14 16:36:28;;;;;;;2.40;1.07;;;;;;;27.20;32.07;101264.70;1625337;87;21091;-48
2022/05/14 16:38:57;;;;;;;1.32;1.22;;;;;;;27.17;32.64;101265.80;1638425;86;21121;-48
2022/05/14 16:41:24;;;;;;;1.20;1.10;;;;;;;27.14;31.51;101274.05;1617928;86;21105;-48
2022/05/14 16:43:54;;;;;;;3.60;0.98;;;;;;;27.09;31.45;101273.59;1626944;87;21196;-48
2022/05/14 16:46:21;;;;;;;2.45;1.02;;;;;;;27.04;31.56;101268.25;1627880;87;21084;-48
2022/05/14 16:48:48;;;;;;;1.40;0.90;;;;;;;27.00;31.10;101272.15;1653290;85;21028;-48
2022/05/14 16:51:16;;;;;;;1.10;0.80;;;;;;;26.97;31.15;101275.95;1667878;84;21062;-48
2022/05/14 16:53:45;;;;;;;0.80;0.80;;;;;;;26.92;31.01;101276.80;1681997;84;21532;-48
2022/05/14 16:56:18;;;;;;;1.22;1.00;;;;;;;26.90;31.26;101276.07;1701397;83;21073;-48
2022/05/14 16:58:46;;;;;;;1.15;1.05;;;;;;;26.86;30.98;101279.97;1679668;85;21082;-48
2022/05/14 17:01:15;;;;;;;1.20;0.90;;;;;;;26.82;31.44;101285.20;1680917;85;21015;-48
2022/05/14 17:03:43;;;;;;;0.80;0.80;;;;;;;26.78;31.46;101283.75;1694700;84;21547;-49
2022/05/14 17:06:10;;;;;;;1.22;1.00;;;;;;;26.72;31.66;101290.92;1703389;84;21117;-47
2022/05/14 17:08:37;;;;;;;2.33;1.00;;;;;;;26.66;31.88;101287.38;1706503;83;21033;-48
2022/05/14 17:11:04;;;;;;;1.57;0.90;;;;;;;26.63;32.35;101291.61;1697677;84;21061;-48
2022/05/14 17:13:34;;;;;;;0.70;0.70;;;;;;;26.59;32.46;101288.83;1696068;83;21050;-47
2022/05/14 17:16:03;;;;;;;6.80;1.47;;;;;;;26.56;32.32;101283.75;1676327;84;21529;-48
2022/05/14 17:18:30;;;;;;;2.08;1.00;;;;;;;26.49;31.89;101292.73;1702568;84;21776;-48
2022/05/14 17:20:57;;;;;;;1.50;1.20;;;;;;;26.45;32.14;101289.08;1671740;83;21117;-47
2022/05/14 17:23:24;;;;;;;2.47;1.00;;;;;;;26.43;31.74;101299.03;1678658;83;21064;-47
2022/05/14 17:25:55;;;;;;;1.37;1.10;;;;;;;26.39;31.46;101293.57;1683655;84;21121;-47
2022/05/14 17:28:19;;;;;;;2.90;1.00;;;;;;;26.37;31.46;101304.37;1676570;85;21085;-49
2022/05/14 17:30:47;;;;;;;1.70;1.10;;;;;;;26.32;31.76;101296.34;1691437;83;21560;-48
2022/05/14 17:33:13;;;;;;;1.10;1.00;;;;;;;26.27;31.92;101306.07;1679728;84;21148;-47
2022/05/14 17:35:41;;;;;;;2.92;1.17;;;;;;;26.24;32.32;101303.63;1683948;84;21428;-47
2022/05/14 17:40:55;;;;;;;3.27;1.10;;;;;;;26.18;32.68;101308.59;1679310;83;21044;-47
2022/05/14 17:43:21;;;;;;;4.05;1.30;;;;;;;26.14;32.87;101310.66;1685041;83;21480;-47
2022/05/14 17:45:48;;;;;;;0.80;0.70;;;;;;;26.12;33.05;101313.92;1695333;83;21030;-47
2022/05/14 17:48:15;;;;;;;2.27;1.10;;;;;;;26.09;33.18;101319.98;1680150;84;21057;-47
2022/05/14 17:50:41;;;;;;;2.85;0.82;;;;;;;26.05;33.17;101319.83;1700215;83;21034;-48
2022/05/14 17:53:09;;;;;;;1.62;1.15;;;;;;;26.00;33.41;101319.31;1697061;84;21081;-48
2022/05/14 17:55:36;;;;;;;1.00;0.90;;;;;;;25.97;33.60;101314.20;1671707;85;21043;-47
2022/05/14 17:58:04;;;;;;;3.92;1.02;;;;;;;25.89;34.13;101321.95;1668205;84;21256;-47
2022/05/14 18:00:36;;;;;;;1.75;1.00;;;;;;;25.89;34.13;101321.95;1682864;84;21058;-47
2022/05/14 18:03:04;;;;;;;1.30;1.20;;;;;;;25.86;34.38;101327.53;1669071;84;21481;-47
2022/05/14 18:05:31;;;;;;;1.85;1.20;;;;;;;25.79;34.51;101321.81;1668264;85;21066;-47
2022/05/14 18:07:58;;;;;;;1.47;1.15;;;;;;;25.81;34.38;101331.40;1697954;83;21538;-47
2022/05/14 18:10:26;;;;;;;2.22;1.00;;;;;;;25.79;34.33;101340.00;1680166;85;21050;-47
2022/05/14 18:12:54;;;;;;;1.65;1.50;;;;;;;25.76;34.30;101345.55;1680472;85;21030;-47
2022/05/14 18:15:24;;;;;;;3.03;1.70;;;;;;;25.74;34.35;101355.47;1679143;84;21066;-47
2022/05/14 18:17:53;;;;;;;2.35;1.75;;;;;;;25.71;34.31;101359.72;1663468;85;21034;-47
2022/05/14 18:20:21;;;;;;;4.28;1.80;;;;;;;25.65;34.51;101374.84;1696149;84;21102;-47
2022/05/14 18:22:50;;;;;;;1.60;1.50;;;;;;;25.65;34.51;101374.84;1697325;84;21053;-47
2022/05/14 18:25:20;;;;;;;5.10;1.85;;;;;;;25.63;34.64;101379.44;1678998;85;21586;-47
2022/05/14 18:27:58;;;;;;;3.05;1.77;;;;;;;25.60;34.74;101382.31;1694121;84;21509;-47
2022/05/14 18:30:29;;;;;;;2.02;1.60;;;;;;;25.55;34.94;101384.49;1565293;91;21125;-47
2022/05/14 18:33:01;;;;;;;2.22;1.52;;;;;;;25.51;35.07;101386.98;1575045;89;21055;-47
2022/05/14 18:35:33;;;;;;;3.08;1.80;;;;;;;25.43;34.97;101398.69;1549070;91;21113;-47
2022/05/14 18:38:02;;;;;;;3.20;2.00;;;;;;;25.43;34.97;101398.69;1557811;91;21096;-47
2022/05/14 18:40:30;;;;;;;4.33;2.10;;;;;;;25.33;35.35;101402.10;1611146;87;21664;-47
2022/05/14 18:43:01;;;;;;;3.92;2.52;;;;;;;25.33;35.35;101402.10;1606498;88;21069;-47
2022/05/14 18:45:28;;;;;;;6.92;2.60;;;;;;;25.26;35.65;101407.05;1604035;88;21572;-48
2022/05/14 18:47:56;;;;;;;3.50;2.58;;;;;;;25.23;35.93;101401.93;1612269;87;21081;-47
2022/05/14 18:50:26;;;;;;;3.47;2.20;;;;;;;25.17;36.42;101404.18;1607029;88;21092;-47
2022/05/14 18:52:53;;;;;;;3.42;2.67;;;;;;;25.16;36.46;101419.33;1605666;88;22328;-47
2022/05/14 18:55:20;;;;;;;3.42;2.20;;;;;;;25.07;36.83;101421.31;1614229;87;21059;-47
2022/05/14 18:57:51;;;;;;;3.47;2.50;;;;;;;25.07;36.83;101421.31;1605920;87;21083;-47
2022/05/14 19:00:19;;;;;;;2.52;2.15;;;;;;;25.05;37.17;101437.88;1592967;88;21095;-48
2022/05/14 19:02:46;;;;;;;2.65;2.00;;;;;;;24.99;37.41;101440.98;1602650;88;21560;-47
2022/05/14 19:07:58;;;;;;;2.55;2.15;;;;;;;24.93;37.79;101444.08;1580231;90;21588;-47
2022/05/14 19:10:26;;;;;;;2.30;2.08;;;;;;;24.90;37.77;101447.80;1579899;89;21734;-47
2022/05/14 19:12:55;;;;;;;3.92;2.10;;;;;;;24.84;37.86;101450.03;1555012;91;21113;-47
2022/05/14 19:15:22;;;;;;;3.95;2.52;;;;;;;24.79;38.32;101458.33;1611063;88;21561;-47
2022/05/14 19:17:50;;;;;;;4.80;2.47;;;;;;;24.74;38.76;101468.94;1600303;88;21536;-47
2022/05/14 19:20:19;;;;;;;4.42;2.33;;;;;;;24.70;38.96;101472.73;1633221;85;21109;-48
2022/05/14 19:22:46;;;;;;;6.03;2.27;;;;;;;24.67;39.15;101476.92;1677155;85;21559;-47
2022/05/14 19:25:13;;;;;;;2.15;1.80;;;;;;;24.64;39.24;101477.16;1681818;85;21146;-47
2022/05/14 19:27:40;;;;;;;2.70;2.20;;;;;;;24.62;39.35;101483.06;1699678;83;21580;-48
2022/05/14 19:30:09;;;;;;;9.55;2.50;;;;;;;24.60;39.46;101484.50;1682774;85;21034;-47
2022/05/14 19:32:36;;;;;;;2.83;2.10;;;;;;;24.58;39.57;101484.23;1703092;83;21104;-48
2022/05/14 19:35:05;;;;;;;3.10;2.00;;;;;;;24.57;39.52;101483.84;1690838;83;21023;-47
2022/05/14 19:37:49;;;;;;;2.20;1.72;;;;;;;24.52;39.42;101487.31;1679265;84;21022;-47
2022/05/14 19:40:29;;;;;;;4.50;2.20;;;;;;;24.47;39.43;101491.61;1662374;84;21066;-47
2022/05/14 19:43:09;;;;;;;4.30;2.33;;;;;;;24.41;39.49;101488.50;1696606;83;21088;-47
2022/05/14 19:45:40;;;;;;;4.30;2.47;;;;;;;24.36;39.45;101494.13;1707811;82;21033;-47
2022/05/14 19:48:08;;;;;;;6.75;3.10;;;;;;;24.34;39.47;101495.21;1651941;86;21058;-47
2022/05/14 19:50:36;;;;;;;2.92;2.27;;;;;;;24.32;39.52;101497.13;1648164;86;21605;-47
2022/05/14 19:53:03;;;;;;;6.17;3.10;;;;;;;24.30;39.36;101488.39;1657233;86;21770;-48
2022/05/14 19:55:35;;;;;;;4.20;3.20;;;;;;;24.28;39.47;101488.98;1628951;86;21160;-47
2022/05/14 19:58:00;;;;;;;7.58;3.12;;;;;;;24.25;39.43;101489.52;1635756;87;21054;-46
2022/05/14 20:00:27;;;;;;;4.50;2.47;;;;;;;24.20;39.60;101484.15;1647332;86;21058;-47
2022/05/14 20:02:54;;;;;;;4.05;2.58;;;;;;;24.16;39.78;101490.16;1621684;87;21063;-47
2022/05/14 20:05:22;;;;;;;4.37;2.47;;;;;;;24.12;39.82;101493.98;1650994;85;21097;-47
2022/05/14 20:07:49;;;;;;;4.12;2.42;;;;;;;24.10;39.94;101489.23;1625380;87;21662;-47
2022/05/14 20:10:18;;;;;;;5.83;3.12;;;;;;;24.10;40.19;101495.89;1627853;87;21661;-47
2022/05/14 20:12:45;;;;;;;4.70;2.85;;;;;;;24.09;40.52;101496.83;1653206;86;21056;-47
2022/05/14 20:15:13;;;;;;;5.58;2.90;;;;;;;24.07;40.57;101494.75;1662029;86;21103;-47
2022/05/14 20:23:13;;;;;;;4.37;2.45;;;;;;;23.97;40.16;101502.06;1619965;87;21117;-47
2022/05/14 20:25:42;;;;;;;5.15;2.33;;;;;;;23.94;40.02;101499.62;1622242;87;21091;-47
2022/05/14 20:28:09;;;;;;;4.53;2.35;;;;;;;23.91;39.99;101505.12;1639533;86;21637;-47
2022/05/14 20:30:37;;;;;;;2.22;2.02;;;;;;;23.87;40.09;101505.80;1625115;86;21117;-48
2022/05/14 20:33:05;;;;;;;3.42;2.27;;;;;;;23.84;40.18;101504.69;1635374;86;21751;-47
2022/05/14 20:35:33;;;;;;;6.12;2.60;;;;;;;23.80;40.25;101504.48;1634836;86;21066;-47
2022/05/14 20:38:01;;;;;;;3.35;2.20;;;;;;;23.78;40.47;101504.23;1641549;86;21113;-48
2022/05/14 20:40:28;;;;;;;3.77;2.27;;;;;;;23.75;40.80;101507.94;1631475;87;21597;-46
2022/05/14 20:42:56;;;;;;;3.67;2.10;;;;;;;23.72;40.83;101509.95;1624275;87;21130;-48
2022/05/14 20:45:24;;;;;;;4.70;2.50;;;;;;;23.71;40.89;101513.06;1665521;83;21556;-47
2022/05/14 20:47:51;;;;;;;4.78;2.85;;;;;;;23.67;40.76;101514.22;1687197;84;21033;-47
2022/05/14 20:50:18;;;;;;;2.52;2.15;;;;;;;23.65;40.70;101517.45;1681447;85;21070;-47
2022/05/14 20:52:45;;;;;;;3.87;2.77;;;;;;;23.61;40.78;101519.92;1679562;85;21042;-47
2022/05/14 20:55:14;;;;;;;5.17;2.00;;;;;;;23.57;40.93;101523.73;1672958;85;21074;-47
2022/05/14 20:57:42;;;;;;;5.20;2.05;;;;;;;23.53;40.88;101522.22;1692793;83;21568;-47
2022/05/14 21:00:11;;;;;;;2.72;2.52;;;;;;;23.48;41.07;101521.64;1678660;84;21088;-47
2022/05/14 21:02:38;;;;;;;2.42;1.80;;;;;;;23.45;41.24;101531.15;1699864;83;21498;-47
2022/05/14 21:05:06;;;;;;;2.08;1.92;;;;;;;23.39;41.31;101526.19;1703913;84;21519;-47
2022/05/14 21:07:35;;;;;;;5.40;2.30;;;;;;;23.36;41.36;101526.41;1688222;83;21098;-47
2022/05/14 21:10:08;;;;;;;4.53;2.00;;;;;;;23.32;41.32;101520.91;1675283;84;21025;-47
2022/05/14 21:12:38;;;;;;;3.92;2.10;;;;;;;23.27;41.54;101524.27;1659709;85;21549;-46
2022/05/14 21:15:07;;;;;;;3.50;2.58;;;;;;;23.24;41.94;101525.81;1675475;85;21545;-47
2022/05/14 21:17:34;;;;;;;6.45;2.20;;;;;;;23.20;42.44;101530.47;1683111;84;21549;-47
2022/05/14 21:20:01;;;;;;;2.98;2.05;;;;;;;23.18;43.17;101534.16;1678270;85;21124;-48
2022/05/14 21:22:28;;;;;;;2.83;1.92;;;;;;;23.17;43.77;101531.97;1664161;86;21634;-47
2022/05/14 21:24:55;;;;;;;3.80;2.30;;;;;;;23.17;44.22;101536.41;1674185;84;21081;-47
2022/05/14 21:27:22;;;;;;;5.08;1.95;;;;;;;23.15;44.36;101536.98;1652386;85;21576;-47
2022/05/14 21:29:49;;;;;;;2.10;1.90;;;;;;;23.13;44.14;101538.41;1629138;87;21066;-47
2022/05/14 21:32:16;;;;;;;3.60;1.80;;;;;;;23.15;44.07;101545.81;1670105;85;21090;-47
2022/05/14 21:40:14;;;;;;;2.62;2.02;;;;;;;23.15;43.61;101552.91;1570929;90;21211;-47
2022/05/14 21:42:54;;;;;;;2.98;1.90;;;;;;;23.15;43.93;101554.24;1559636;90;21037;-47
2022/05/14 21:45:25;;;;;;;2.22;1.70;;;;;;;23.14;44.06;101552.55;1555791;91;21185;-47
2022/05/14 21:47:52;;;;;;;2.73;1.80;;;;;;;23.15;44.01;101554.24;1528299;93;21169;-47
2022/05/14 21:50:20;;;;;;;2.55;1.92;;;;;;;23.13;43.98;101554.34;1540760;91;21095;-47
2022/05/14 21:52:51;;;;;;;2.67;1.95;;;;;;;23.12;44.41;101557.11;1557787;91;21119;-47
2022/05/14 21:55:25;;;;;;;2.15;1.72;;;;;;;23.13;44.49;101557.47;1557306;91;21080;-47
2022/05/14 21:57:52;;;;;;;2.70;1.65;;;;;;;23.14;45.15;101557.86;1551041;91;21075;-47
2022/05/14 22:00:27;;;;;;;1.50;1.40;;;;;;;23.14;43.77;101553.38;1546512;91;21145;-47
2022/05/14 22:02:58;;;;;;;2.25;1.75;;;;;;;23.14;42.82;101553.38;1547192;90;21578;-47
2022/05/14 22:05:29;;;;;;;4.20;1.80;;;;;;;23.17;42.83;101557.66;1553669;90;21108;-47
2022/05/14 22:07:58;;;;;;;2.27;2.08;;;;;;;23.18;43.43;101554.93;1461876;97;21095;-47
2022/05/14 22:10:24;;;;;;;2.75;2.02;;;;;;;23.21;44.33;101560.50;1457020;97;21116;-48
2022/05/14 22:12:52;;;;;;;3.75;2.45;;;;;;;23.22;44.47;101563.55;1474685;96;21117;-47
2022/05/14 22:15:21;;;;;;;3.62;2.10;;;;;;;23.22;44.77;101555.59;1452687;97;21142;-47
2022/05/14 22:17:48;;;;;;;1.80;1.70;;;;;;;23.21;45.06;101564.48;1463219;97;21085;-47